createdAt,value
2022-09-06T00:01:17.230Z,100912.47
2022-09-06T00:04:20.234Z,100910.38
2022-09-06T00:07:22.745Z,100914.28
2022-09-06T00:10:26.483Z,100917.69
2022-09-06T00:13:29.300Z,100916.25
2022-09-06T00:16:32.117Z,100910.50
2022-09-06T00:19:34.749Z,100904.97
2022-09-06T00:22:38.604Z,100913.81
2022-09-06T00:25:41.830Z,100900.78
2022-09-06T00:28:45.100Z,100903.91
2022-09-06T00:31:47.622Z,100903.69
2022-09-06T00:34:50.347Z,100910.31
2022-09-06T00:37:58.025Z,100919.78
2022-09-06T00:41:01.230Z,100915.41
2022-09-06T00:44:04.166Z,100914.41
2022-09-06T00:47:08.495Z,100918.34
2022-09-06T00:50:13.842Z,100912.34
2022-09-06T00:53:17.535Z,100917.28
2022-09-06T00:56:20.139Z,100916.84
2022-09-06T00:59:25.680Z,100917.72
2022-09-06T01:02:28.333Z,100915.41
2022-09-06T01:05:43.350Z,100920.56
2022-09-06T01:09:18.426Z,100915.75
2022-09-06T01:12:55.666Z,100913.91
2022-09-06T01:16:01.073Z,100914.50
2022-09-06T01:19:31.502Z,100916.53
2022-09-06T01:22:40.187Z,100918.97
2022-09-06T01:26:01.075Z,100909.91
2022-09-06T01:29:11.166Z,100913.19
2022-09-06T01:32:23.958Z,100912.78
2022-09-06T01:35:26.434Z,100908.25
2022-09-06T01:38:29.514Z,100910.94
2022-09-06T01:41:32.842Z,100905.56
2022-09-06T01:44:37.746Z,100908.44
2022-09-06T01:47:54.536Z,100905.75
2022-09-06T01:51:32.336Z,100904.91
2022-09-06T01:55:00.254Z,100900.56
2022-09-06T01:58:38.929Z,100901.22
2022-09-06T02:01:44.600Z,100898.91
2022-09-06T02:05:01.416Z,100902.25
2022-09-06T02:08:16.236Z,100896.19
2022-09-06T02:11:19.186Z,100901.91
2022-09-06T02:14:36.158Z,100904.38
2022-09-06T02:17:43.206Z,100898.34
2022-09-06T02:20:51.028Z,100909.34
2022-09-06T02:23:57.109Z,100900.91
2022-09-06T02:26:59.657Z,100898.81
2022-09-06T02:30:03.167Z,100898.56
2022-09-06T02:33:16.359Z,100891.06
2022-09-06T02:36:19.500Z,100889.91
2022-09-06T02:39:22.102Z,100892.31
2022-09-06T02:42:25.198Z,100892.94
2022-09-06T02:45:27.739Z,100902.69
2022-09-06T02:48:30.514Z,100892.31
2022-09-06T02:51:38.356Z,100892.19
2022-09-06T02:54:41.126Z,100885.13
2022-09-06T02:57:43.866Z,100893.66
2022-09-06T03:00:46.693Z,100890.00
2022-09-06T03:03:49.314Z,100887.59
2022-09-06T03:06:52.074Z,100888.37
2022-09-06T03:09:56.937Z,100889.62
2022-09-06T03:13:00.044Z,100883.53
2022-09-06T03:16:02.903Z,100890.25
2022-09-06T03:19:05.667Z,100896.72
2022-09-06T03:22:08.307Z,100896.25
2022-09-06T03:25:11.388Z,100888.31
2022-09-06T03:28:13.968Z,100887.69
2022-09-06T03:31:16.904Z,100896.72
2022-09-06T03:34:19.384Z,100889.91
2022-09-06T03:37:22.132Z,100896.72
2022-09-06T03:40:25.029Z,100888.41
2022-09-06T03:43:28.254Z,100894.37
2022-09-06T03:46:30.949Z,100891.31
2022-09-06T03:49:33.641Z,100892.53
2022-09-06T03:52:36.220Z,100896.31
2022-09-06T03:55:39.540Z,100896.91
2022-09-06T03:58:42.073Z,100900.56
2022-09-06T04:01:44.917Z,100897.87
2022-09-06T04:04:47.769Z,100891.88
2022-09-06T04:07:50.269Z,100893.94
2022-09-06T04:10:54.979Z,100893.72
2022-09-06T04:13:57.489Z,100896.62
2022-09-06T04:17:00.409Z,100900.88
2022-09-06T04:20:03.825Z,100893.78
2022-09-06T04:23:07.441Z,100897.19
2022-09-06T04:26:10.041Z,100894.31
2022-09-06T04:29:13.011Z,100908.72
2022-09-06T04:32:15.511Z,100902.16
2022-09-06T04:35:18.358Z,100900.38
2022-09-06T04:38:21.157Z,100903.50
2022-09-06T04:41:23.931Z,100900.38
2022-09-06T04:44:26.481Z,100913.94
2022-09-06T04:47:29.739Z,100912.03
2022-09-06T04:50:32.632Z,100913.88
2022-09-06T04:53:40.720Z,100901.91
2022-09-06T04:56:43.234Z,100900.97
2022-09-06T04:59:46.065Z,100900.75
2022-09-06T05:02:48.580Z,100899.72
2022-09-06T05:05:51.465Z,100892.47
2022-09-06T05:08:54.310Z,100891.00
2022-09-06T05:11:57.828Z,100887.94
2022-09-06T05:15:00.492Z,100885.38
2022-09-06T05:18:04.974Z,100895.53
2022-09-06T05:21:07.838Z,100895.31
2022-09-06T05:24:10.837Z,100903.78
2022-09-06T05:27:14.275Z,100899.72
2022-09-06T05:30:18.179Z,100897.31
2022-09-06T05:33:22.692Z,100904.13
2022-09-06T05:36:26.669Z,100903.53
2022-09-06T05:39:29.175Z,100905.31
2022-09-06T05:42:32.032Z,100910.00
2022-09-06T05:45:34.663Z,100907.78
2022-09-06T05:48:37.728Z,100911.97
2022-09-06T05:51:40.845Z,100911.44
2022-09-06T05:54:43.731Z,100914.75
2022-09-06T05:57:46.544Z,100896.19
2022-09-06T06:00:49.169Z,100914.28
2022-09-06T06:03:57.856Z,100910.88
2022-09-06T06:07:00.359Z,100906.59
2022-09-06T06:10:04.397Z,100906.59
2022-09-06T06:13:07.543Z,100900.38
2022-09-06T06:16:16.448Z,100907.81
2022-09-06T06:19:19.030Z,100918.31
2022-09-06T06:22:21.918Z,100908.81
2022-09-06T06:25:26.277Z,100911.56
2022-09-06T06:28:29.209Z,100914.09
2022-09-06T06:31:33.416Z,100910.41
2022-09-06T06:34:36.267Z,100908.16
2022-09-06T06:37:38.683Z,100902.91
2022-09-06T06:40:45.833Z,100901.87
2022-09-06T06:43:48.361Z,100906.97
2022-09-06T06:46:52.118Z,100914.38
2022-09-06T06:49:54.907Z,100912.75
2022-09-06T06:52:57.697Z,100915.69
2022-09-06T06:56:00.296Z,100923.59
2022-09-06T06:59:05.557Z,100925.41
2022-09-06T07:02:08.392Z,100922.84
2022-09-06T07:08:34.557Z,100925.63
2022-09-06T07:11:37.240Z,100922.72
2022-09-06T07:14:40.218Z,100923.66
2022-09-06T07:17:44.101Z,100927.34
2022-09-06T07:24:10.267Z,100920.34
2022-09-06T07:30:37.451Z,100926.19
2022-09-06T07:33:40.179Z,100931.87
2022-09-06T07:36:42.942Z,100930.31
2022-09-06T07:39:45.587Z,100929.63
2022-09-06T07:42:48.602Z,100936.41
2022-09-06T07:46:14.077Z,100926.25
2022-09-06T07:49:16.858Z,100931.31
2022-09-06T07:55:44.838Z,100928.63
2022-09-06T07:58:48.310Z,100922.78
2022-09-06T08:01:53.292Z,100938.50
2022-09-06T08:04:56.849Z,100925.06
2022-09-06T08:11:24.731Z,100926.75
2022-09-06T08:14:29.190Z,100923.78
2022-09-06T08:17:35.953Z,100922.84
2022-09-06T08:20:40.856Z,100925.69
2022-09-06T08:23:52.981Z,100914.75
2022-09-06T08:26:55.562Z,100920.41
2022-09-06T08:29:58.491Z,100907.00
2022-09-06T08:33:01.555Z,100907.94
2022-09-06T08:36:05.864Z,100910.34
2022-09-06T08:39:10.360Z,100900.63
2022-09-06T08:42:13.467Z,100895.56
2022-09-06T08:45:19.683Z,100903.03
2022-09-06T08:48:32.159Z,100905.63
2022-09-06T08:51:50.609Z,100905.06
2022-09-06T08:55:03.057Z,100900.59
2022-09-06T08:58:58.034Z,100900.28
2022-09-06T09:02:14.489Z,100895.13
2022-09-06T09:05:37.283Z,100898.16
2022-09-06T09:09:12.968Z,100889.28
2022-09-06T09:12:22.575Z,100891.41
2022-09-06T09:15:25.609Z,100889.13
2022-09-06T09:18:33.641Z,100885.53
2022-09-06T09:21:38.848Z,100890.28
2022-09-06T09:24:44.127Z,100879.31
2022-09-06T09:27:57.301Z,100879.72
2022-09-06T09:31:00.712Z,100873.91
2022-09-06T09:34:05.511Z,100856.25
2022-09-06T09:40:48.945Z,100850.31
2022-09-06T09:44:03.713Z,100852.03
2022-09-06T09:47:28.710Z,100849.06
2022-09-06T09:50:34.839Z,100842.19
2022-09-06T09:53:50.563Z,100828.44
2022-09-06T09:56:54.310Z,100824.38
2022-09-06T10:00:06.606Z,100823.75
2022-09-06T10:03:19.133Z,100818.25
2022-09-06T10:10:02.465Z,100815.34
2022-09-06T10:13:23.389Z,100813.06
2022-09-06T10:16:43.675Z,100808.66
2022-09-06T10:19:47.401Z,100806.75
2022-09-06T10:23:11.595Z,100801.09
2022-09-06T10:26:43.618Z,100796.94
2022-09-06T10:30:04.233Z,100796.09
2022-09-06T10:33:27.834Z,100789.56
2022-09-06T10:37:01.274Z,100789.53
2022-09-06T10:40:09.880Z,100777.56
2022-09-06T10:43:18.991Z,100776.19
2022-09-06T10:46:25.897Z,100767.44
2022-09-06T10:49:29.325Z,100772.34
2022-09-06T10:52:38.612Z,100768.94
2022-09-06T10:55:47.815Z,100770.88
2022-09-06T11:02:48.945Z,100776.19
2022-09-06T11:05:59.476Z,100776.37
2022-09-06T11:09:41.639Z,100780.13
2022-09-06T11:13:08.514Z,100772.25
2022-09-06T11:16:24.767Z,100777.75
2022-09-06T11:19:33.762Z,100770.19
2022-09-06T11:22:50.248Z,100762.78
2022-09-06T11:26:29.100Z,100755.84
2022-09-06T11:29:34.824Z,100756.84
2022-09-06T11:32:51.618Z,100745.00
2022-09-06T11:36:14.689Z,100731.00
2022-09-06T11:43:03.148Z,100733.41
2022-09-06T11:46:05.842Z,100731.59
2022-09-06T11:49:29.263Z,100726.34
2022-09-06T11:52:59.202Z,100718.28
2022-09-06T11:56:02.090Z,100708.34
2022-09-06T11:59:27.234Z,100709.81
2022-09-06T12:02:41.072Z,100707.75
2022-09-06T12:06:15.315Z,100707.28
2022-09-06T12:09:35.567Z,100695.44
2022-09-06T12:12:46.229Z,100692.06
2022-09-06T12:15:54.562Z,100689.53
2022-09-06T12:18:59.086Z,100675.78
2022-09-06T12:22:02.836Z,100682.56
2022-09-06T12:25:34.189Z,100682.59
2022-09-06T12:28:46.959Z,100676.00
2022-09-06T12:32:01.644Z,100657.28
2022-09-06T12:38:31.767Z,100654.00
2022-09-06T12:41:43.298Z,100656.59
2022-09-06T12:44:49.861Z,100648.62
2022-09-06T12:48:05.030Z,100640.72
2022-09-06T12:51:16.200Z,100636.41
2022-09-06T12:54:26.326Z,100632.81
2022-09-06T12:57:29.718Z,100634.97
2022-09-06T13:00:54.633Z,100627.47
2022-09-06T13:04:22.352Z,100612.63
2022-09-06T13:07:27.142Z,100617.72
2022-09-06T13:10:31.245Z,100608.22
2022-09-06T13:13:33.868Z,100603.69
2022-09-06T13:16:42.614Z,100596.59
2022-09-06T13:19:45.750Z,100591.69
2022-09-06T13:22:51.035Z,100584.53
2022-09-06T13:25:55.696Z,100579.13
2022-09-06T13:29:10.588Z,100579.59
2022-09-06T13:32:14.631Z,100566.75
2022-09-06T13:35:26.473Z,100564.38
2022-09-06T13:38:39.844Z,100562.59
2022-09-06T13:41:42.904Z,100563.81
2022-09-06T13:44:45.382Z,100553.34
2022-09-06T13:47:48.219Z,100559.59
2022-09-06T13:50:50.693Z,100552.94
2022-09-06T13:54:06.314Z,100540.72
2022-09-06T13:57:09.939Z,100546.19
2022-09-06T14:00:13.872Z,100542.47
2022-09-06T14:03:25.623Z,100540.41
2022-09-06T14:06:28.448Z,100539.03
2022-09-06T14:09:31.424Z,100529.53
2022-09-06T14:12:37.111Z,100536.63
2022-09-06T14:15:41.174Z,100532.81
2022-09-06T14:18:45.114Z,100533.62
2022-09-06T14:21:48.166Z,100537.19
2022-09-06T14:24:50.945Z,100532.53
2022-09-06T14:27:53.823Z,100519.97
2022-09-06T14:30:56.590Z,100526.25
2022-09-06T14:34:03.476Z,100525.16
2022-09-06T14:37:09.254Z,100523.53
2022-09-06T14:40:16.859Z,100531.13
2022-09-06T14:43:19.766Z,100518.63
2022-09-06T14:46:24.328Z,100516.09
2022-09-06T14:49:27.218Z,100513.31
2022-09-06T14:52:30.076Z,100520.94
2022-09-06T14:55:32.621Z,100515.97
2022-09-06T14:58:37.530Z,100515.53
2022-09-06T15:01:41.179Z,100514.59
2022-09-06T15:04:44.015Z,100521.87
2022-09-06T15:07:46.972Z,100522.66
2022-09-06T15:10:54.920Z,100520.44
2022-09-06T15:13:58.757Z,100516.06
2022-09-06T15:17:03.188Z,100526.81
2022-09-06T15:20:06.270Z,100514.06
2022-09-06T15:23:35.456Z,100514.66
2022-09-06T15:26:33.569Z,100514.94
2022-09-06T15:29:39.434Z,100515.50
2022-09-06T15:32:42.938Z,100515.03
2022-09-06T15:35:54.796Z,100518.03
2022-09-06T15:39:01.097Z,100521.00
2022-09-06T15:42:04.545Z,100522.13
2022-09-06T15:45:09.370Z,100523.53
2022-09-06T15:48:15.945Z,100525.88
2022-09-06T15:51:20.624Z,100527.16
2022-09-06T15:54:43.432Z,100529.69
2022-09-06T15:57:46.824Z,100537.25
2022-09-06T16:01:11.269Z,100541.28
2022-09-06T16:04:14.166Z,100542.53
2022-09-06T16:07:18.544Z,100556.56
2022-09-06T16:10:23.622Z,100565.47
2022-09-06T16:13:33.295Z,100578.56
2022-09-06T16:16:36.494Z,100579.31
2022-09-06T16:19:39.928Z,100580.63
2022-09-06T16:22:42.885Z,100585.84
2022-09-06T16:25:55.360Z,100585.63
2022-09-06T16:28:58.809Z,100583.16
2022-09-06T16:32:01.299Z,100577.06
2022-09-06T16:35:05.867Z,100573.22
2022-09-06T16:38:09.431Z,100567.16
2022-09-06T16:41:19.303Z,100559.81
2022-09-06T16:44:21.926Z,100561.47
2022-09-06T16:47:24.921Z,100567.16
2022-09-06T16:50:27.681Z,100558.41
2022-09-06T16:53:30.564Z,100561.69
2022-09-06T16:56:35.833Z,100561.34
2022-09-06T16:59:39.300Z,100558.41
2022-09-06T17:02:47.140Z,100555.37
2022-09-06T17:05:52.133Z,100556.91
2022-09-06T17:08:59.363Z,100559.22
2022-09-06T17:12:05.041Z,100547.97
2022-09-06T17:15:11.216Z,100564.28
2022-09-06T17:18:15.252Z,100565.34
2022-09-06T17:21:18.994Z,100560.50
2022-09-06T17:24:23.537Z,100574.69
2022-09-06T17:27:27.022Z,100584.28
2022-09-06T17:30:39.780Z,100582.34
2022-09-06T17:33:42.522Z,100592.06
2022-09-06T17:36:45.410Z,100586.72
2022-09-06T17:39:48.097Z,100585.69
2022-09-06T17:42:52.181Z,100589.72
2022-09-06T17:45:54.759Z,100592.78
2022-09-06T17:48:58.281Z,100592.59
2022-09-06T17:52:00.745Z,100590.47
2022-09-06T17:55:04.805Z,100601.03
2022-09-06T17:58:08.410Z,100596.78
2022-09-06T18:01:14.022Z,100603.66
2022-09-06T18:04:17.595Z,100599.31
2022-09-06T18:07:20.198Z,100606.19
2022-09-06T18:10:23.255Z,100599.53
2022-09-06T18:13:25.770Z,100594.09
2022-09-06T18:16:30.664Z,100597.00
2022-09-06T18:19:33.803Z,100593.16
2022-09-06T18:22:38.770Z,100593.41
2022-09-06T18:25:41.367Z,100598.50
2022-09-06T18:28:44.482Z,100596.09
2022-09-06T18:31:47.643Z,100602.75
2022-09-06T18:34:51.736Z,100605.22
2022-09-06T18:37:54.195Z,100605.22
2022-09-06T18:40:59.166Z,100609.56
2022-09-06T18:44:03.633Z,100605.00
2022-09-06T18:47:09.278Z,100596.47
2022-09-06T18:50:12.452Z,100600.72
2022-09-06T18:53:18.228Z,100602.00
2022-09-06T18:56:20.939Z,100607.75
2022-09-06T18:59:24.389Z,100603.50
2022-09-06T19:02:28.513Z,100608.44
2022-09-06T19:05:34.073Z,100608.91
2022-09-06T19:08:37.173Z,100616.50
2022-09-06T19:11:41.673Z,100618.91
2022-09-06T19:14:44.257Z,100614.56
2022-09-06T19:17:49.016Z,100615.34
2022-09-06T19:21:02.732Z,100613.63
2022-09-06T19:24:08.376Z,100612.00
2022-09-06T19:27:12.152Z,100602.91
2022-09-06T19:30:15.485Z,100608.97
2022-09-06T19:33:18.335Z,100614.41
2022-09-06T19:36:22.882Z,100606.75
2022-09-06T19:39:32.362Z,100607.03
2022-09-06T19:42:38.159Z,100607.25
2022-09-06T19:45:41.453Z,100609.56
2022-09-06T19:48:48.239Z,100609.19
2022-09-06T19:51:51.321Z,100589.94
2022-09-06T19:54:54.163Z,100596.16
2022-09-06T19:57:57.763Z,100585.63
2022-09-06T20:01:01.058Z,100581.12
2022-09-06T20:04:07.046Z,100585.69
2022-09-06T20:07:09.580Z,100579.97
2022-09-06T20:10:13.426Z,100587.72
2022-09-06T20:13:16.014Z,100581.94
2022-09-06T20:16:20.969Z,100582.63
2022-09-06T20:19:23.708Z,100581.38
2022-09-06T20:22:26.730Z,100589.47
2022-09-06T20:25:29.294Z,100595.66
2022-09-06T20:28:33.180Z,100599.53
2022-09-06T20:31:37.600Z,100594.16
2022-09-06T20:34:41.426Z,100594.94
2022-09-06T20:37:44.090Z,100594.31
2022-09-06T20:40:47.026Z,100585.81
2022-09-06T20:43:57.706Z,100591.84
2022-09-06T20:47:01.038Z,100584.44
2022-09-06T20:50:03.870Z,100584.44
2022-09-06T20:53:06.951Z,100586.09
2022-09-06T20:56:16.996Z,100592.91
2022-09-06T20:59:19.803Z,100601.53
2022-09-06T21:02:22.380Z,100597.16
2022-09-06T21:05:25.236Z,100594.88
2022-09-06T21:08:30.680Z,100594.38
2022-09-06T21:11:37.357Z,100584.19
2022-09-06T21:14:39.837Z,100586.00
2022-09-06T21:17:42.635Z,100582.87
2022-09-06T21:21:00.014Z,100579.44
2022-09-06T21:24:04.904Z,100580.91
2022-09-06T21:27:07.451Z,100586.44
2022-09-06T21:30:11.123Z,100577.78
2022-09-06T21:33:14.253Z,100579.09
2022-09-06T21:36:19.620Z,100580.31
2022-09-06T21:39:22.156Z,100575.22
2022-09-06T21:42:24.938Z,100585.03
2022-09-06T21:45:27.472Z,100577.44
2022-09-06T21:48:30.870Z,100577.06
2022-09-06T21:51:34.074Z,100572.53
2022-09-06T21:54:36.875Z,100575.66
2022-09-06T21:57:39.355Z,100572.78
2022-09-06T22:00:42.937Z,100575.03
2022-09-06T22:03:46.649Z,100563.72
2022-09-06T22:06:49.249Z,100570.56
2022-09-06T22:09:52.217Z,100574.91
2022-09-06T22:12:55.463Z,100568.50
2022-09-06T22:16:05.631Z,100583.38
2022-09-06T22:19:11.882Z,100575.34
2022-09-06T22:22:14.731Z,100574.34
2022-09-06T22:25:17.299Z,100568.75
2022-09-06T22:28:20.188Z,100576.19
2022-09-06T22:31:24.240Z,100573.31
2022-09-06T22:34:27.122Z,100573.31
2022-09-06T22:37:29.661Z,100571.66
2022-09-06T22:40:32.350Z,100571.06
2022-09-06T22:43:35.211Z,100574.97
2022-09-06T22:46:38.619Z,100567.13
2022-09-06T22:49:41.193Z,100566.53
2022-09-06T22:52:44.015Z,100571.72
2022-09-06T22:55:48.027Z,100569.66
2022-09-06T22:58:50.811Z,100559.75
2022-09-06T23:01:53.397Z,100562.47
2022-09-06T23:04:56.395Z,100556.69
2022-09-06T23:08:01.655Z,100557.06
2022-09-06T23:11:08.073Z,100551.94
2022-09-06T23:14:10.840Z,100555.03
2022-09-06T23:17:14.779Z,100556.28
2022-09-06T23:20:17.974Z,100558.75
2022-09-06T23:23:20.760Z,100558.72
2022-09-06T23:26:27.560Z,100551.75
2022-09-06T23:29:31.636Z,100553.19
2022-09-06T23:32:34.194Z,100551.34
2022-09-06T23:35:38.815Z,100558.97
2022-09-06T23:38:44.634Z,100554.66
2022-09-06T23:41:47.405Z,100552.16
2022-09-06T23:44:54.376Z,100543.72
2022-09-06T23:47:57.166Z,100541.84
2022-09-06T23:51:00.039Z,100548.44
2022-09-06T23:54:03.682Z,100552.59
2022-09-06T23:57:06.366Z,100545.56
